createdAt,value
2023-11-24T00:02:17.596Z,10.77
2023-11-24T00:05:21.058Z,10.72
2023-11-24T00:08:24.358Z,10.76
2023-11-24T00:11:27.853Z,10.73
2023-11-24T00:14:31.204Z,10.79
2023-11-24T00:17:36.365Z,10.41
2023-11-24T00:20:39.574Z,10.27
2023-11-24T00:23:42.946Z,10.25
2023-11-24T00:26:46.220Z,10.33
2023-11-24T00:29:49.391Z,10.54
2023-11-24T00:32:53.984Z,10.47
2023-11-24T00:35:57.308Z,10.68
2023-11-24T00:39:00.729Z,10.55
2023-11-24T00:42:05.104Z,10.56
2023-11-24T00:45:09.011Z,10.47
2023-11-24T00:48:12.385Z,10.23
2023-11-24T00:51:15.977Z,10.40
2023-11-24T00:54:19.332Z,10.51
2023-11-24T00:57:22.943Z,10.58
2023-11-24T01:00:26.432Z,10.65
2023-11-24T01:03:29.740Z,10.47
2023-11-24T01:06:32.938Z,10.17
2023-11-24T01:09:36.255Z,10.39
2023-11-24T01:12:39.554Z,10.46
2023-11-24T01:15:42.750Z,10.49
2023-11-24T01:18:45.969Z,10.64
2023-11-24T01:21:49.118Z,10.46
2023-11-24T01:24:53.276Z,10.54
2023-11-24T01:27:56.682Z,10.61
2023-11-24T01:30:59.972Z,10.41
2023-11-24T01:34:03.343Z,10.19
2023-11-24T01:37:06.677Z,10.17
2023-11-24T01:40:10.255Z,10.41
2023-11-24T01:43:13.377Z,10.43
2023-11-24T01:46:16.891Z,10.10
2023-11-24T01:49:20.349Z,9.89
2023-11-24T01:52:23.553Z,10.17
2023-11-24T01:55:26.964Z,10.37
2023-11-24T01:58:30.546Z,10.15
2023-11-24T02:01:41.080Z,10.36
2023-11-24T02:04:44.549Z,10.31
2023-11-24T02:07:47.933Z,10.07
2023-11-24T02:10:51.441Z,10.11
2023-11-24T02:13:54.872Z,10.22
2023-11-24T02:16:58.084Z,10.28
2023-11-24T02:20:01.736Z,10.29
2023-11-24T02:23:07.545Z,10.31
2023-11-24T02:26:10.717Z,10.38
2023-11-24T02:29:13.925Z,10.07
2023-11-24T02:32:17.353Z,9.99
2023-11-24T02:35:20.606Z,9.94
2023-11-24T02:38:23.818Z,9.89
2023-11-24T02:41:28.753Z,10.08
2023-11-24T02:44:32.032Z,9.99
2023-11-24T02:47:35.517Z,9.97
2023-11-24T02:50:38.729Z,10.11
2023-11-24T02:53:42.367Z,10.24
2023-11-24T02:56:45.899Z,10.24
2023-11-24T02:59:50.167Z,9.95
2023-11-24T03:02:53.485Z,9.96
2023-11-24T03:05:57.222Z,10.14
2023-11-24T03:09:00.348Z,10.12
2023-11-24T03:12:03.789Z,10.18
2023-11-24T03:15:07.487Z,10.07
2023-11-24T03:18:11.087Z,10.30
2023-11-24T03:21:14.260Z,10.28
2023-11-24T03:24:17.620Z,10.09
2023-11-24T03:27:20.879Z,10.09
2023-11-24T03:30:24.680Z,10.24
2023-11-24T03:33:27.982Z,10.28
2023-11-24T03:36:33.745Z,10.26
2023-11-24T03:39:37.116Z,10.31
2023-11-24T03:42:40.817Z,10.26
2023-11-24T03:45:44.093Z,10.07
2023-11-24T03:48:47.382Z,10.22
2023-11-24T03:51:50.577Z,10.11
2023-11-24T03:54:53.906Z,10.23
2023-11-24T03:57:57.181Z,10.26
2023-11-24T04:01:00.351Z,10.09
2023-11-24T04:04:05.147Z,10.24
2023-11-24T04:07:08.512Z,10.09
2023-11-24T04:10:12.092Z,10.04
2023-11-24T04:13:15.521Z,9.88
2023-11-24T04:16:19.181Z,9.80
2023-11-24T04:19:22.497Z,9.93
2023-11-24T04:22:25.632Z,9.90
2023-11-24T04:25:28.958Z,9.98
2023-11-24T04:28:32.160Z,10.21
2023-11-24T04:31:35.435Z,10.38
2023-11-24T04:34:38.813Z,10.43
2023-11-24T04:37:42.009Z,10.31
2023-11-24T04:40:45.267Z,10.39
2023-11-24T04:43:48.436Z,10.46
2023-11-24T04:46:51.598Z,10.55
2023-11-24T04:49:55.058Z,10.46
2023-11-24T04:52:58.240Z,10.29
2023-11-24T04:56:01.594Z,10.09
2023-11-24T04:59:05.676Z,9.76
2023-11-24T05:02:09.310Z,9.61
2023-11-24T05:05:12.619Z,10.00
2023-11-24T05:08:15.923Z,10.10
2023-11-24T05:11:21.086Z,10.11
2023-11-24T05:14:24.938Z,10.14
2023-11-24T05:17:28.162Z,10.35
2023-11-24T05:20:31.452Z,10.44
2023-11-24T05:23:34.672Z,10.41
2023-11-24T05:26:39.257Z,10.17
2023-11-24T05:29:42.439Z,10.25
2023-11-24T05:32:45.928Z,10.19
2023-11-24T05:35:49.179Z,10.46
2023-11-24T05:38:52.400Z,10.15
2023-11-24T05:41:55.679Z,10.04
2023-11-24T05:44:59.057Z,10.11
2023-11-24T05:48:02.303Z,10.03
2023-11-24T05:51:05.779Z,10.11
2023-11-24T05:54:08.978Z,10.08
2023-11-24T05:57:12.177Z,10.02
2023-11-24T06:00:15.699Z,9.95
2023-11-24T06:03:19.011Z,10.08
2023-11-24T06:06:22.221Z,10.07
2023-11-24T06:09:25.550Z,10.33
2023-11-24T06:12:28.696Z,10.32
2023-11-24T06:15:33.134Z,10.42
2023-11-24T06:18:36.678Z,10.31
2023-11-24T06:21:42.887Z,10.34
2023-11-24T06:24:48.163Z,10.37
2023-11-24T06:27:51.266Z,10.49
2023-11-24T06:30:54.442Z,10.31
2023-11-24T06:33:57.869Z,10.33
2023-11-24T06:37:01.128Z,10.38
2023-11-24T06:40:04.900Z,10.41
2023-11-24T06:43:08.061Z,10.38
2023-11-24T06:46:13.936Z,10.54
2023-11-24T06:49:17.237Z,10.36
2023-11-24T06:52:20.817Z,10.42
2023-11-24T06:55:24.028Z,10.49
2023-11-24T06:58:27.642Z,10.53
2023-11-24T07:01:33.712Z,10.62
2023-11-24T07:04:37.421Z,10.44
2023-11-24T07:07:40.758Z,10.34
2023-11-24T07:10:45.914Z,10.38
2023-11-24T07:13:51.764Z,10.43
2023-11-24T07:16:54.939Z,10.53
2023-11-24T07:19:59.165Z,10.61
2023-11-24T07:23:02.537Z,10.64
2023-11-24T07:26:06.825Z,10.70
2023-11-24T07:29:10.114Z,10.54
2023-11-24T07:32:13.247Z,10.59
2023-11-24T07:35:16.598Z,10.60
2023-11-24T07:38:19.798Z,10.21
2023-11-24T07:41:23.144Z,10.56
2023-11-24T07:44:27.478Z,10.45
2023-11-24T07:47:30.662Z,10.48
2023-11-24T07:50:33.833Z,10.29
2023-11-24T07:53:38.144Z,10.28
2023-11-24T07:56:41.355Z,10.29
2023-11-24T07:59:45.394Z,10.42
2023-11-24T08:02:48.826Z,10.53
2023-11-24T08:05:52.313Z,10.41
2023-11-24T08:08:55.503Z,10.57
2023-11-24T08:12:01.414Z,10.51
2023-11-24T08:15:04.750Z,10.55
2023-11-24T08:18:07.895Z,10.57
2023-11-24T08:21:11.041Z,10.65
2023-11-24T08:24:14.424Z,10.45
2023-11-24T08:27:18.303Z,10.29
2023-11-24T08:30:22.649Z,10.48
2023-11-24T08:33:25.954Z,10.44
2023-11-24T08:36:29.417Z,10.47
2023-11-24T08:39:32.573Z,10.37
2023-11-24T08:42:35.862Z,10.43
2023-11-24T08:45:39.126Z,10.30
2023-11-24T08:48:45.011Z,10.16
2023-11-24T08:51:50.807Z,10.28
2023-11-24T08:54:54.206Z,10.33
2023-11-24T08:57:57.357Z,10.47
2023-11-24T09:01:00.967Z,10.48
2023-11-24T09:04:04.437Z,10.42
2023-11-24T09:07:07.822Z,10.43
2023-11-24T09:10:13.786Z,10.53
2023-11-24T09:13:17.062Z,10.55
2023-11-24T09:16:20.902Z,10.52
2023-11-24T09:19:24.591Z,10.32
2023-11-24T09:22:27.867Z,10.43
2023-11-24T09:25:31.250Z,10.38
2023-11-24T09:28:34.408Z,10.53
2023-11-24T09:31:37.705Z,10.56
2023-11-24T09:34:40.917Z,10.39
2023-11-24T09:37:44.171Z,10.30
2023-11-24T09:40:48.167Z,10.35
2023-11-24T09:43:51.640Z,10.30
2023-11-24T09:46:55.594Z,10.29
2023-11-24T09:50:00.349Z,10.27
2023-11-24T09:53:06.101Z,10.27
2023-11-24T09:56:09.526Z,10.25
2023-11-24T09:59:12.703Z,10.11
2023-11-24T10:02:19.448Z,10.19
2023-11-24T10:05:23.317Z,10.20
2023-11-24T10:08:26.660Z,10.22
2023-11-24T10:11:31.178Z,10.09
2023-11-24T10:14:34.398Z,10.28
2023-11-24T10:17:37.803Z,10.43
2023-11-24T10:20:41.136Z,10.48
2023-11-24T10:23:44.352Z,10.43
2023-11-24T10:26:47.676Z,10.43
2023-11-24T10:29:52.424Z,10.27
2023-11-24T10:32:57.772Z,10.38
2023-11-24T10:36:01.200Z,10.31
2023-11-24T10:39:07.080Z,10.26
2023-11-24T10:42:10.991Z,10.24
2023-11-24T10:45:18.344Z,10.45
2023-11-24T10:48:30.325Z,10.10
2023-11-24T10:51:47.882Z,10.04
2023-11-24T10:54:58.566Z,10.09
2023-11-24T10:58:02.017Z,10.28
2023-11-24T11:01:05.451Z,10.32
2023-11-24T11:04:08.985Z,10.49
2023-11-24T11:07:27.133Z,10.64
2023-11-24T11:10:32.887Z,10.20
2023-11-24T11:13:37.796Z,10.45
2023-11-24T11:16:41.395Z,10.52
2023-11-24T11:20:06.304Z,10.45
2023-11-24T11:23:11.135Z,10.42
2023-11-24T11:26:47.033Z,10.39
2023-11-24T11:29:50.240Z,10.52
2023-11-24T11:33:17.181Z,10.31
2023-11-24T11:36:21.526Z,10.34
2023-11-24T11:39:25.043Z,10.35
2023-11-24T11:42:31.988Z,10.41
2023-11-24T11:45:52.115Z,10.43
2023-11-24T11:48:57.447Z,10.27
2023-11-24T11:52:06.093Z,10.25
2023-11-24T11:55:09.766Z,10.19
2023-11-24T11:58:14.233Z,10.18
2023-11-24T12:01:18.481Z,10.38
2023-11-24T12:04:22.215Z,10.38
2023-11-24T12:07:26.103Z,10.41
2023-11-24T12:10:29.406Z,10.38
2023-11-24T12:13:32.604Z,10.38
2023-11-24T12:16:36.028Z,10.40
2023-11-24T12:19:41.403Z,10.48
2023-11-24T12:22:45.358Z,10.33
2023-11-24T12:25:48.716Z,10.25
2023-11-24T12:28:53.525Z,10.24
2023-11-24T12:31:57.054Z,10.08
2023-11-24T12:35:00.557Z,10.18
2023-11-24T12:38:03.991Z,10.21
2023-11-24T12:41:07.516Z,10.45
2023-11-24T12:44:14.676Z,10.46
2023-11-24T12:47:21.398Z,10.24
2023-11-24T12:50:24.693Z,10.43
2023-11-24T12:53:29.922Z,10.81
2023-11-24T12:56:33.238Z,10.74
2023-11-24T12:59:37.246Z,10.55
2023-11-24T13:02:40.964Z,10.67
2023-11-24T13:05:44.145Z,10.87
2023-11-24T13:08:48.271Z,10.86
2023-11-24T13:11:51.493Z,10.90
2023-11-24T13:14:54.851Z,11.28
2023-11-24T13:17:58.438Z,11.32
2023-11-24T13:21:01.746Z,10.93
2023-11-24T13:24:05.160Z,11.29
2023-11-24T13:27:08.439Z,11.17
2023-11-24T13:30:11.978Z,11.03
2023-11-24T13:33:15.292Z,11.78
2023-11-24T13:36:18.538Z,11.72
2023-11-24T13:39:21.979Z,11.74
2023-11-24T13:42:25.177Z,11.86
2023-11-24T13:45:28.689Z,12.86
2023-11-24T13:48:32.058Z,12.34
2023-11-24T13:51:35.177Z,12.39
2023-11-24T13:54:38.666Z,12.10
2023-11-24T13:57:41.868Z,11.45
2023-11-24T14:00:45.122Z,11.07
2023-11-24T14:03:48.650Z,10.92
2023-11-24T14:06:53.048Z,10.81
2023-11-24T14:09:56.509Z,11.05
2023-11-24T14:13:00.028Z,11.05
2023-11-24T14:16:04.187Z,11.13
2023-11-24T14:19:07.833Z,11.13
2023-11-24T14:22:11.077Z,10.94
2023-11-24T14:25:16.592Z,10.81
2023-11-24T14:28:20.006Z,10.91
2023-11-24T14:31:23.239Z,11.14
2023-11-24T14:34:26.638Z,11.11
2023-11-24T14:37:29.909Z,11.18
2023-11-24T14:40:33.334Z,11.21
2023-11-24T14:43:38.880Z,11.22
2023-11-24T14:46:45.172Z,11.39
2023-11-24T14:49:50.453Z,11.44
2023-11-24T14:52:54.283Z,11.35
2023-11-24T14:55:57.423Z,11.46
2023-11-24T14:59:02.736Z,11.24
2023-11-24T15:02:05.996Z,11.54
2023-11-24T15:05:09.903Z,11.65
2023-11-24T15:08:13.200Z,11.40
2023-11-24T15:11:17.389Z,10.83
2023-11-24T15:14:21.259Z,10.98
2023-11-24T15:17:24.408Z,11.29
2023-11-24T15:20:28.224Z,11.67
2023-11-24T15:23:31.617Z,11.41
2023-11-24T15:26:34.846Z,11.58
2023-11-24T15:29:38.190Z,11.74
2023-11-24T15:32:41.607Z,12.22
2023-11-24T15:35:45.213Z,12.22
2023-11-24T15:38:48.504Z,12.08
2023-11-24T15:41:51.780Z,12.24
2023-11-24T15:44:55.041Z,12.11
2023-11-24T15:48:06.121Z,11.72
2023-11-24T15:51:11.169Z,11.87
2023-11-24T15:54:15.710Z,12.04
2023-11-24T15:57:19.261Z,12.37
2023-11-24T16:00:22.823Z,12.51
2023-11-24T16:03:26.161Z,12.61
2023-11-24T16:06:30.400Z,12.81
2023-11-24T16:09:33.597Z,12.77
2023-11-24T16:12:40.388Z,12.47
2023-11-24T16:15:43.548Z,12.50
2023-11-24T16:18:46.883Z,12.65
2023-11-24T16:21:50.041Z,12.86
2023-11-24T16:24:53.511Z,13.27
2023-11-24T16:27:56.886Z,13.09
2023-11-24T16:31:00.124Z,12.78
2023-11-24T16:34:03.466Z,13.04
2023-11-24T16:37:06.895Z,13.33
2023-11-24T16:40:10.616Z,13.23
2023-11-24T16:43:13.868Z,13.11
2023-11-24T16:46:17.104Z,13.21
2023-11-24T16:49:20.429Z,13.58
2023-11-24T16:52:23.684Z,13.13
2023-11-24T16:55:27.135Z,13.09
2023-11-24T16:58:30.349Z,12.95
2023-11-24T17:01:33.803Z,13.16
2023-11-24T17:04:37.621Z,13.72
2023-11-24T17:07:40.890Z,13.34
2023-11-24T17:10:44.428Z,13.69
2023-11-24T17:13:47.752Z,14.02
2023-11-24T17:16:51.038Z,13.88
2023-11-24T17:19:54.444Z,13.74
2023-11-24T17:22:59.633Z,13.25
2023-11-24T17:26:03.020Z,13.34
2023-11-24T17:29:06.266Z,13.80
2023-11-24T17:32:10.808Z,14.11
2023-11-24T17:35:14.021Z,13.85
2023-11-24T17:38:21.398Z,13.48
2023-11-24T17:41:25.300Z,13.96
2023-11-24T17:44:28.666Z,14.32
2023-11-24T17:47:31.897Z,13.65
2023-11-24T17:50:37.747Z,14.53
2023-11-24T17:53:43.027Z,14.05
2023-11-24T17:56:46.141Z,14.53
2023-11-24T17:59:49.330Z,14.39
2023-11-24T18:02:54.461Z,14.39
2023-11-24T18:06:00.104Z,14.29
2023-11-24T18:09:04.888Z,14.33
2023-11-24T18:12:08.303Z,14.13
2023-11-24T18:15:11.653Z,14.52
2023-11-24T18:18:14.897Z,14.79
2023-11-24T18:21:18.147Z,15.33
2023-11-24T18:24:24.325Z,15.39
2023-11-24T18:27:27.590Z,15.79
2023-11-24T18:30:30.861Z,15.54
2023-11-24T18:33:34.097Z,15.88
2023-11-24T18:36:37.402Z,15.61
2023-11-24T18:39:45.824Z,15.34
2023-11-24T18:42:49.076Z,15.48
2023-11-24T18:45:52.421Z,15.53
2023-11-24T18:48:55.702Z,15.46
2023-11-24T18:51:59.243Z,14.71
2023-11-24T18:55:02.483Z,15.01
2023-11-24T18:58:05.709Z,15.31
2023-11-24T19:01:08.950Z,15.27
2023-11-24T19:04:12.402Z,15.03
2023-11-24T19:07:15.533Z,15.63
2023-11-24T19:10:18.968Z,15.70
2023-11-24T19:13:22.320Z,16.26
2023-11-24T19:16:25.585Z,16.57
2023-11-24T19:19:28.908Z,16.47
2023-11-24T19:22:32.330Z,16.49
2023-11-24T19:25:35.585Z,16.10
2023-11-24T19:28:42.719Z,15.71
2023-11-24T19:31:45.663Z,16.12
2023-11-24T19:34:49.035Z,16.17
2023-11-24T19:37:52.299Z,16.39
2023-11-24T19:40:55.605Z,16.08
2023-11-24T19:43:58.864Z,16.71
2023-11-24T19:47:03.480Z,16.68
2023-11-24T19:50:07.855Z,16.77
2023-11-24T19:53:11.133Z,16.13
2023-11-24T19:56:16.441Z,16.36
2023-11-24T19:59:19.796Z,16.04
2023-11-24T20:02:24.045Z,15.99
2023-11-24T20:05:27.467Z,16.33
2023-11-24T20:08:30.649Z,16.36
2023-11-24T20:11:33.836Z,16.69
2023-11-24T20:14:39.088Z,16.46
2023-11-24T20:17:42.245Z,16.49
2023-11-24T20:20:46.363Z,16.90
2023-11-24T20:23:49.839Z,17.34
2023-11-24T20:26:53.035Z,17.72
2023-11-24T20:29:56.329Z,17.52
2023-11-24T20:32:59.611Z,17.95
2023-11-24T20:36:03.496Z,17.34
2023-11-24T20:39:06.924Z,18.12
2023-11-24T20:42:10.228Z,17.75
2023-11-24T20:45:13.425Z,18.11
2023-11-24T20:48:16.636Z,18.02
2023-11-24T20:51:19.833Z,17.36
2023-11-24T20:54:23.013Z,17.78
2023-11-24T20:57:26.277Z,18.05
2023-11-24T21:00:31.267Z,18.40
2023-11-24T21:03:36.218Z,18.38
2023-11-24T21:06:41.271Z,17.58
2023-11-24T21:09:44.604Z,17.42
2023-11-24T21:12:48.851Z,17.70
2023-11-24T21:15:52.382Z,17.62
2023-11-24T21:18:55.655Z,17.22
2023-11-24T21:21:58.885Z,16.90
2023-11-24T21:25:04.237Z,16.77
2023-11-24T21:28:07.417Z,16.77
2023-11-24T21:31:10.742Z,16.69
2023-11-24T21:34:13.994Z,16.81
2023-11-24T21:37:17.657Z,17.08
2023-11-24T21:40:21.006Z,16.54
2023-11-24T21:43:24.342Z,16.64
2023-11-24T21:46:27.627Z,16.53
2023-11-24T21:49:30.942Z,16.50
2023-11-24T21:52:35.754Z,16.96
2023-11-24T21:55:39.031Z,16.23
2023-11-24T21:58:42.245Z,16.41
2023-11-24T22:01:45.848Z,16.67
2023-11-24T22:04:49.678Z,16.56
2023-11-24T22:07:59.069Z,16.58
2023-11-24T22:11:02.991Z,16.55
2023-11-24T22:14:09.565Z,16.31
2023-11-24T22:17:13.121Z,16.23
2023-11-24T22:20:16.479Z,16.28
2023-11-24T22:23:19.988Z,16.17
2023-11-24T22:26:25.135Z,15.97
2023-11-24T22:29:28.829Z,15.89
2023-11-24T22:32:33.856Z,15.62
2023-11-24T22:35:37.456Z,15.50
2023-11-24T22:38:41.273Z,15.47
2023-11-24T22:41:45.215Z,15.40
2023-11-24T22:44:51.053Z,15.45
2023-11-24T22:47:54.980Z,15.28
2023-11-24T22:51:01.024Z,15.14
2023-11-24T22:54:04.557Z,15.02
2023-11-24T22:57:07.866Z,14.86
2023-11-24T23:00:11.669Z,14.91
2023-11-24T23:03:15.033Z,14.75
2023-11-24T23:06:20.872Z,14.68
2023-11-24T23:09:09.146Z,14.58
2023-11-24T23:12:12.258Z,14.50
2023-11-24T23:15:16.081Z,14.38
2023-11-24T23:18:19.318Z,14.26
2023-11-24T23:21:23.996Z,14.08
2023-11-24T23:24:27.649Z,14.00
2023-11-24T23:27:31.162Z,13.88
2023-11-24T23:30:34.313Z,14.06
2023-11-24T23:33:38.780Z,14.40
2023-11-24T23:36:42.030Z,14.33
2023-11-24T23:39:45.284Z,14.55
2023-11-24T23:42:48.799Z,13.45
2023-11-24T23:45:56.102Z,14.44
2023-11-24T23:48:59.321Z,13.90
2023-11-24T23:52:02.500Z,14.11
2023-11-24T23:55:06.176Z,13.86
2023-11-24T23:58:09.680Z,13.65
